EST,Max TemperatureF,Mean TemperatureF,Min TemperatureF,Max Dew PointF,MeanDew PointF,Min DewpointF,Max Humidity, Mean Humidity, Min Humidity, Max Sea Level PressureIn, Mean Sea Level PressureIn, Min Sea Level PressureIn, Max VisibilityMiles, Mean VisibilityMiles, Min VisibilityMiles, Max Wind SpeedMPH, Mean Wind SpeedMPH, Max Gust SpeedMPH,PrecipitationIn, CloudCover, Events, WindDirDegrees
2013-2-1,18,14,10,9,6,0,84,69,54,30.14,30.01,29.79,10,7,2,17,7,24,0.01,8,Snow,287
2013-2-2,17,10,3,7,2,-1,76,65,53,30.10,30.05,29.98,10,9,2,16,7,21,T,5,Snow,290
2013-2-3,18,9,0,10,5,-4,87,77,67,30.03,29.88,29.78,10,8,1,14,6,21,T,5,Snow,266
2013-2-4,19,10,1,5,2,-2,88,68,47,30.01,29.97,29.93,10,10,9,12,3,16,T,5,,307
2013-2-5,22,11,-1,18,8,-6,92,83,74,29.96,29.82,29.68,10,5,0,15,5,18,0.08,7,Fog-Snow,203
2013-2-6,24,9,-7,18,7,-9,91,71,50,30.29,30.21,29.99,10,8,2,13,3,20,0.02,4,Snow,245
2013-2-7,29,25,21,27,24,19,92,88,84,30.27,30.18,30.06,6,3,1,16,7,21,0.21,8,Snow,119
2013-2-8,27,16,4,22,14,2,92,83,73,30.40,30.19,30.06,10,5,1,21,12,25,0.14,7,Snow,8
2013-2-9,28,9,-10,16,3,-14,91,74,57,30.48,30.39,30.27,10,9,3,14,4,16,0.00,2,,197
2013-2-10,35,19,3,31,20,4,96,80,64,30.26,30.00,29.63,10,7,2,22,9,32,0.16,5,Rain,138
2013-2-11,39,34,28,36,31,21,100,86,72,29.72,29.46,29.39,10,6,0,24,12,36,0.02,8,Fog-Rain-Snow,202
2013-2-12,30,27,23,20,18,15,81,72,63,29.94,29.88,29.75,10,10,9,21,9,29,T,7,Snow,264
2013-2-13,40,32,24,25,22,16,92,73,54,29.87,29.74,29.67,10,10,7,13,5,17,0.00,7,,210
2013-2-14,34,30,25,32,28,21,92,89,85,29.74,29.66,29.59,7,2,0,18,5,29,0.22,8,Fog-Snow,180
2013-2-15,25,21,16,21,13,8,88,75,62,30.13,29.97,29.74,10,6,1,17,8,29,T,8,Snow,300
2013-2-16,20,13,5,10,5,1,80,65,49,30.14,30.09,30.02,10,9,3,15,6,17,T,6,Snow,326
2013-2-17,17,10,2,7,4,-1,88,71,54,30.21,30.16,30.08,10,7,2,15,4,17,T,7,Snow,321
2013-2-18,33,18,2,29,15,-2,95,77,58,30.19,29.90,29.56,10,10,7,24,12,31,T,5,Rain,152
2013-2-19,39,27,14,36,20,7,92,76,59,29.77,29.48,29.23,10,5,0,24,16,36,0.12,8,Fog-Rain-Snow,262
2013-2-20,17,14,10,9,4,2,76,68,59,30.28,30.03,29.75,10,7,2,22,14,30,T,7,Snow,308
2013-2-21,21,14,7,16,8,1,84,73,62,30.46,30.40,30.30,10,9,5,21,7,25,T,7,Snow,344
2013-2-22,30,26,22,28,25,19,92,87,81,30.34,30.02,29.83,10,5,0,21,13,28,0.19,8,Fog-Rain-Snow,120
2013-2-23,34,30,26,28,26,24,100,85,69,29.86,29.80,29.76,10,5,0,14,5,18,0.05,8,Fog-Snow,212
2013-2-24,37,26,15,25,21,12,96,74,52,30.14,29.97,29.82,10,8,2,14,4,24,T,7,Snow,286
2013-2-25,34,31,28,25,24,21,85,75,64,30.23,30.18,30.13,10,10,10,8,2,9,T,8,,163
2013-2-26,34,31,27,29,24,21,84,74,64,30.22,30.03,29.78,10,9,2,25,11,32,0.01,7,Snow,74
2013-2-27,33,33,32,31,30,30,92,91,89,29.76,29.67,29.63,10,2,0,22,15,31,0.33,8,Fog-Rain-Snow,57
2013-2-28,33,28,22,31,26,16,92,83,74,30.06,29.81,29.64,10,4,1,25,16,30,0.15,8,Snow,4